SADF

Details ICAO SADF
Name San Fernando
Region Argentina
Timezone America/Argentina/Buenos_Aires (UTC-3.0)
Plans Departing 98
Arriving 24
Stats Elevation 10 ft / 3 m (AMSL)
Location -34.454044° -58.590226°
Runways 1
Magnetic Variation 8.890° W
Sunrise 2017-12-10 08:36:34 UTC / 2017-12-10 05:36:34 Local
Sunset 2017-12-10 23:00:49 UTC / 2017-12-10 20:00:49 Local
Advertisement - Login to hide

Runways

ID Width Length Bearing (true) Bearing (mag) Surface Threshold Offset Overrun Length
05 131 ft / 40 m 5,904 ft / 1,800 m 44.03° 52.92° Asphalt 0 ft / 0 m 0 ft / 0 m
23 131 ft / 40 m 5,904 ft / 1,800 m 224.02° 232.91° Asphalt 899 ft / 274 m 0 ft / 0 m

Map

Weather


0- 5 10 15 20 25 30 35+ Temperature / ° C

Clouds and Precipitation
Forecast for 2017-12-11 06:00 UTC. Updated an hour ago

Ground ~20,000 ft ~40,000 ft Winds

METAR

SADF 110200Z 14012KT 110V200 CAVOK 20/04 Q1013

TAF

TAF SADF 102300Z 1100/1124 16015KT CAVOK TX27/1118Z TN13/1110Z BECMG 1104/110 14010KT BECMG 1110/1112 09005KT BECMG 1122/1200 09010KT

Frequencies

Ground 121.65 MHz San Fernando GND
Tower 119.00 MHz San Fernando TWR AUX
Tower 120.70 MHz San Fernando TWR
Warning: Do not use this data for real-world aviation or navigation. No guarantee of current accuracy is given.